createdAt,value
2022-11-24T00:03:16.158Z,100
2022-11-24T00:13:16.523Z,100
2022-11-24T00:33:17.741Z,100
2022-11-24T00:43:18.626Z,100
2022-11-24T00:53:18.992Z,100
2022-11-24T01:23:19.837Z,100
2022-11-24T01:33:20.063Z,100
2022-11-24T01:43:20.905Z,100
2022-11-24T01:53:21.365Z,100
2022-11-24T02:03:21.757Z,100
2022-11-24T02:13:21.991Z,100
2022-11-24T02:23:22.913Z,100
2022-11-24T02:33:23.268Z,100
2022-11-24T02:53:24.621Z,100
2022-11-24T03:03:25.598Z,100
2022-11-24T03:13:26.442Z,100
2022-11-24T03:23:26.692Z,100
2022-11-24T03:33:27.621Z,100
2022-11-24T03:43:28.111Z,100
2022-11-24T03:53:29.112Z,100
2022-11-24T04:03:29.734Z,100
2022-11-24T04:23:30.647Z,100
2022-11-24T04:33:30.789Z,99
2022-11-24T04:43:31.861Z,99
2022-11-24T04:53:31.405Z,99
2022-11-24T05:03:32.127Z,99
2022-11-24T05:43:33.789Z,100
2022-11-24T05:53:34.630Z,100
2022-11-24T06:03:35.255Z,100
2022-11-24T06:13:35.663Z,100
2022-11-24T06:23:36.526Z,100
2022-11-24T06:43:38.313Z,100
2022-11-24T06:53:38.852Z,100
2022-11-24T07:03:39.439Z,100
2022-11-24T07:13:40.331Z,100
2022-11-24T07:23:40.951Z,100
2022-11-24T07:33:41.774Z,100
2022-11-24T07:43:42.447Z,98
2022-11-24T07:53:42.791Z,97
2022-11-24T08:03:43.096Z,97
2022-11-24T08:23:43.782Z,96
2022-11-24T08:33:44.725Z,96
2022-11-24T08:43:45.749Z,96
2022-11-24T08:53:46.235Z,96
2022-11-24T09:03:49.876Z,96
2022-11-24T09:13:47.106Z,96
2022-11-24T09:23:48.093Z,96
2022-11-24T09:43:49.677Z,96
2022-11-24T09:53:50.084Z,96
2022-11-24T10:03:50.421Z,97
2022-11-24T10:33:53.032Z,96
2022-11-24T10:43:53.709Z,97
2022-11-24T10:53:53.822Z,97
2022-11-24T11:03:54.412Z,97
2022-11-24T11:13:59.988Z,96
2022-11-24T11:23:56.059Z,96
2022-11-24T11:34:05.228Z,95
2022-11-24T12:27:56.966Z,93
2022-11-24T12:45:12.792Z,92
2022-11-24T13:05:13.647Z,90
2022-11-24T14:35:18.445Z,90
2022-11-24T14:55:23.027Z,91
2022-11-24T15:15:19.688Z,92
2022-11-24T15:25:19.799Z,92
2022-11-24T15:35:20.717Z,93
2022-11-24T15:45:20.900Z,94
2022-11-24T15:55:21.935Z,94
2022-11-24T16:05:22.867Z,95
2022-11-24T16:15:23.170Z,96
2022-11-24T16:25:23.814Z,96
2022-11-24T16:35:24.349Z,97
2022-11-24T16:45:25.091Z,98
2022-11-24T16:55:25.892Z,98
2022-11-24T17:05:26.700Z,99
2022-11-24T17:15:32.943Z,100
2022-11-24T17:25:27.489Z,100
2022-11-24T17:55:29.686Z,100
2022-11-24T18:05:30.229Z,100
2022-11-24T18:15:31.131Z,100
2022-11-24T18:25:31.608Z,100
2022-11-24T18:35:32.457Z,100
2022-11-24T18:45:33.038Z,97
2022-11-24T18:55:33.338Z,97
2022-11-24T19:05:33.653Z,97
2022-11-24T19:15:34.085Z,97
2022-11-24T19:45:35.165Z,96
2022-11-24T20:25:36.873Z,96
2022-11-24T21:25:41.571Z,97
2022-11-24T22:15:44.095Z,98
2022-11-24T22:25:45.055Z,98
2022-11-24T22:35:45.461Z,98
2022-11-24T22:55:46.522Z,100
2022-11-24T23:05:46.959Z,100
2022-11-24T23:15:47.012Z,100
2022-11-24T23:25:48.018Z,100
2022-11-24T23:35:48.763Z,100
2022-11-24T23:45:49.521Z,100
2022-11-24T23:55:50.060Z,100
